createdAt,value
2023-08-26T00:04:57.650Z,2.67
2023-08-26T00:09:59.316Z,2.90
2023-08-26T00:15:00.909Z,5.95
2023-08-26T00:20:02.473Z,5.45
2023-08-26T00:25:04.668Z,3.03
2023-08-26T00:30:07.007Z,3.35
2023-08-26T00:35:08.822Z,3.85
2023-08-26T00:40:10.680Z,3.40
2023-08-26T00:45:12.320Z,2.42
2023-08-26T00:50:13.914Z,3.25
2023-08-26T00:55:15.857Z,4.72
2023-08-26T01:00:17.485Z,2.30
2023-08-26T01:05:19.166Z,3.80
2023-08-26T01:10:21.687Z,3.63
2023-08-26T01:15:23.309Z,2.65
2023-08-26T01:20:25.689Z,1.67
2023-08-26T01:25:27.459Z,1.55
2023-08-26T01:30:29.849Z,2.22
2023-08-26T01:35:37.360Z,3.83
2023-08-26T01:40:40.181Z,4.57
2023-08-26T01:45:41.771Z,1.95
2023-08-26T01:50:43.401Z,3.25
2023-08-26T01:55:45.017Z,2.25
2023-08-26T02:00:46.573Z,2.42
2023-08-26T02:05:48.186Z,5.80
2023-08-26T02:10:56.388Z,2.28
2023-08-26T02:15:58.457Z,4.57
2023-08-26T02:21:00.007Z,2.85
2023-08-26T02:26:01.688Z,2.30
2023-08-26T02:31:06.348Z,1.80
2023-08-26T02:36:08.027Z,2.40
2023-08-26T02:41:09.621Z,3.53
2023-08-26T02:46:11.204Z,2.78
2023-08-26T02:51:12.772Z,2.63
2023-08-26T02:56:14.312Z,4.90
2023-08-26T03:01:17.915Z,5.20
2023-08-26T03:06:19.624Z,3.13
2023-08-26T03:11:21.259Z,2.65
2023-08-26T03:16:22.931Z,4.93
2023-08-26T03:21:25.616Z,2.03
2023-08-26T03:26:27.175Z,3.03
2023-08-26T03:31:28.984Z,3.13
2023-08-26T03:36:30.765Z,3.50
2023-08-26T03:41:32.293Z,3.25
2023-08-26T03:46:33.816Z,4.20
2023-08-26T03:51:35.412Z,3.28
2023-08-26T03:56:36.941Z,6.88
2023-08-26T04:01:39.311Z,2.75
2023-08-26T04:06:41.274Z,2.30
2023-08-26T04:11:44.002Z,2.90
2023-08-26T04:16:45.531Z,5.18
2023-08-26T04:21:47.073Z,2.78
2023-08-26T04:26:48.649Z,6.13
2023-08-26T04:31:50.610Z,4.30
2023-08-26T04:36:52.196Z,2.55
2023-08-26T04:41:53.791Z,3.38
2023-08-26T04:46:55.377Z,6.00
2023-08-26T04:51:56.967Z,6.13
2023-08-26T04:56:58.573Z,2.50
2023-08-26T05:02:00.171Z,3.35
2023-08-26T05:07:01.712Z,8.80
2023-08-26T05:12:04.456Z,2.83
2023-08-26T05:17:06.038Z,4.00
2023-08-26T05:22:07.616Z,4.22
2023-08-26T05:27:09.178Z,4.30
2023-08-26T05:32:10.953Z,5.10
2023-08-26T05:37:12.648Z,4.03
2023-08-26T05:42:14.239Z,7.03
2023-08-26T05:47:15.809Z,5.53
2023-08-26T05:52:17.331Z,8.57
2023-08-26T05:57:19.021Z,3.40
2023-08-26T06:02:20.690Z,4.43
2023-08-26T06:07:22.213Z,6.05
2023-08-26T06:12:23.802Z,6.47
2023-08-26T06:17:25.379Z,4.82
2023-08-26T06:22:27.051Z,4.90
2023-08-26T06:27:28.660Z,5.13
2023-08-26T06:32:30.837Z,6.72
2023-08-26T06:37:32.792Z,5.45
2023-08-26T06:42:34.350Z,5.35
2023-08-26T06:47:35.957Z,4.97
2023-08-26T06:52:37.516Z,5.75
2023-08-26T06:57:39.149Z,4.63
2023-08-26T07:02:40.786Z,3.08
2023-08-26T07:07:42.383Z,5.55
2023-08-26T07:12:43.956Z,3.83
2023-08-26T07:17:45.600Z,5.38
2023-08-26T07:22:47.746Z,4.32
2023-08-26T07:27:49.359Z,5.28
2023-08-26T07:32:51.014Z,3.65
2023-08-26T07:37:53.870Z,7.97
2023-08-26T07:42:55.538Z,6.25
2023-08-26T07:53:02.967Z,6.82
2023-08-26T07:58:05.059Z,5.63
2023-08-26T08:03:06.895Z,2.53
2023-08-26T08:08:08.549Z,5.65
2023-08-26T08:13:10.327Z,4.70
2023-08-26T08:18:11.870Z,2.95
2023-08-26T08:23:13.434Z,6.53
2023-08-26T08:28:14.973Z,3.95
2023-08-26T08:33:16.772Z,6.35
2023-08-26T08:38:18.344Z,3.05
2023-08-26T08:43:21.880Z,3.92
2023-08-26T08:48:24.488Z,3.47
2023-08-26T08:53:30.213Z,3.60
2023-08-26T08:58:32.264Z,4.00
2023-08-26T09:03:34.029Z,4.38
2023-08-26T09:08:35.646Z,2.92
2023-08-26T09:13:37.303Z,3.83
2023-08-26T09:18:40.545Z,2.28
2023-08-26T09:23:43.597Z,2.92
2023-08-26T09:28:48.459Z,1.63
2023-08-26T09:34:02.691Z,2.15
2023-08-26T09:39:12.489Z,1.92
2023-08-26T09:44:14.388Z,2.00
2023-08-26T09:49:16.918Z,1.98
2023-08-26T09:54:19.281Z,2.33
2023-08-26T09:59:20.845Z,1.58
2023-08-26T10:04:23.487Z,1.17
2023-08-26T10:09:48.225Z,2.92
2023-08-26T10:14:51.805Z,2.45
2023-08-26T10:19:53.940Z,2.65
2023-08-26T10:24:55.600Z,2.63
2023-08-26T10:29:57.647Z,1.75
2023-08-26T10:34:59.941Z,1.45
2023-08-26T10:40:05.634Z,2.30
2023-08-26T10:45:15.021Z,2.25
2023-08-26T10:50:20.809Z,2.00
2023-08-26T10:55:23.177Z,3.45
2023-08-26T11:00:24.712Z,2.20
2023-08-26T11:05:26.371Z,1.50
2023-08-26T11:10:41.064Z,3.58
2023-08-26T11:15:43.208Z,1.42
2023-08-26T11:20:45.821Z,1.98
2023-08-26T11:25:47.387Z,2.60
2023-08-26T11:30:50.708Z,2.92
2023-08-26T11:36:06.763Z,3.25
2023-08-26T11:41:11.554Z,3.17
2023-08-26T11:46:13.347Z,1.45
2023-08-26T11:51:14.935Z,2.15
2023-08-26T11:56:16.585Z,3.65
2023-08-26T12:01:18.160Z,3.25
2023-08-26T12:06:19.786Z,2.28
2023-08-26T12:11:21.704Z,3.42
2023-08-26T12:16:23.320Z,3.03
2023-08-26T12:21:24.901Z,2.97
2023-08-26T12:26:26.664Z,2.85
2023-08-26T12:31:28.987Z,5.03
2023-08-26T12:36:46.968Z,3.10
2023-08-26T12:41:50.770Z,6.95
2023-08-26T12:46:53.056Z,2.53
2023-08-26T12:51:54.616Z,4.40
2023-08-26T12:56:56.680Z,2.22
2023-08-26T13:01:58.214Z,2.90
2023-08-26T13:06:59.835Z,2.28
2023-08-26T13:12:01.365Z,2.75
2023-08-26T13:17:03.975Z,3.75
2023-08-26T13:22:06.696Z,3.00
2023-08-26T13:27:08.280Z,2.83
2023-08-26T13:32:10.143Z,2.28
2023-08-26T13:37:11.676Z,2.92
2023-08-26T13:42:13.240Z,3.67
2023-08-26T13:47:16.753Z,4.25
2023-08-26T13:52:18.540Z,3.95
2023-08-26T13:57:20.125Z,2.45
2023-08-26T14:02:21.952Z,6.00
2023-08-26T14:07:23.598Z,2.20
2023-08-26T14:12:25.374Z,3.95
2023-08-26T14:17:26.965Z,4.55
2023-08-26T14:22:28.605Z,5.05
2023-08-26T14:27:30.274Z,4.13
2023-08-26T14:32:32.125Z,6.07
2023-08-26T14:37:33.822Z,4.03
2023-08-26T14:42:35.388Z,3.60
2023-08-26T14:47:37.302Z,3.60
2023-08-26T14:52:38.922Z,4.80
2023-08-26T14:57:40.515Z,4.78
2023-08-26T15:02:42.458Z,3.05
2023-08-26T15:07:44.883Z,3.58
2023-08-26T15:12:47.334Z,4.38
2023-08-26T15:17:48.994Z,3.10
2023-08-26T15:22:50.624Z,2.60
2023-08-26T15:27:53.195Z,3.83
2023-08-26T15:32:55.183Z,3.03
2023-08-26T15:37:57.472Z,4.60
2023-08-26T15:42:59.347Z,3.88
2023-08-26T15:48:01.192Z,3.72
2023-08-26T15:53:03.019Z,6.13
2023-08-26T15:58:05.215Z,1.63
2023-08-26T16:03:07.729Z,6.43
2023-08-26T16:08:09.490Z,5.40
2023-08-26T16:13:12.471Z,2.30
2023-08-26T16:18:14.422Z,5.55
2023-08-26T16:23:16.005Z,4.05
2023-08-26T16:28:17.545Z,5.47
2023-08-26T16:33:20.997Z,3.10
2023-08-26T16:38:24.617Z,4.53
2023-08-26T16:43:26.193Z,3.83
2023-08-26T16:48:27.931Z,2.65
2023-08-26T16:53:29.535Z,3.05
2023-08-26T16:58:31.060Z,7.40
2023-08-26T17:03:32.618Z,2.60
2023-08-26T17:08:34.249Z,3.42
2023-08-26T17:13:35.796Z,4.00
2023-08-26T17:18:37.373Z,5.43
2023-08-26T17:23:38.925Z,6.28
2023-08-26T17:28:40.485Z,6.07
2023-08-26T17:33:42.114Z,6.90
2023-08-26T17:38:43.673Z,9.20
2023-08-26T17:43:45.200Z,10.77
2023-08-26T17:48:46.716Z,8.25
2023-08-26T17:53:48.319Z,10.50
2023-08-26T17:58:49.870Z,15.00
2023-08-26T18:03:51.503Z,12.02
2023-08-26T18:08:53.097Z,17.50
2023-08-26T18:13:54.689Z,17.30
2023-08-26T18:18:56.317Z,16.13
2023-08-26T18:23:57.861Z,17.77
2023-08-26T18:28:59.376Z,16.20
2023-08-26T18:34:01.835Z,19.23
2023-08-26T18:39:06.402Z,17.88
2023-08-26T18:44:07.996Z,23.10
2023-08-26T18:49:09.557Z,18.95
2023-08-26T18:54:11.271Z,21.02
2023-08-26T18:59:12.856Z,23.50
2023-08-26T19:04:14.480Z,17.98
2023-08-26T19:09:17.324Z,15.27
2023-08-26T19:14:18.867Z,18.13
2023-08-26T19:19:20.702Z,17.27
2023-08-26T19:24:22.346Z,16.15
2023-08-26T19:29:25.043Z,18.70
2023-08-26T19:34:26.699Z,17.13
2023-08-26T19:39:28.321Z,14.93
2023-08-26T19:44:30.185Z,13.07
2023-08-26T19:49:31.741Z,14.60
2023-08-26T19:54:33.348Z,15.88
2023-08-26T19:59:35.322Z,15.43
2023-08-26T20:04:36.866Z,15.63
2023-08-26T20:09:38.493Z,14.10
2023-08-26T20:14:40.296Z,16.63
2023-08-26T20:19:41.813Z,15.52
2023-08-26T20:24:43.338Z,17.55
2023-08-26T20:29:44.905Z,13.18
2023-08-26T20:34:46.688Z,16.92
2023-08-26T20:39:48.349Z,16.70
2023-08-26T20:44:49.945Z,15.13
2023-08-26T20:49:54.858Z,13.07
2023-08-26T20:54:56.452Z,16.25
2023-08-26T20:59:58.007Z,11.40
2023-08-26T21:04:59.592Z,9.07
2023-08-26T21:10:01.126Z,11.02
2023-08-26T21:15:02.697Z,9.82
2023-08-26T21:20:08.298Z,11.40
2023-08-26T21:25:09.925Z,12.82
2023-08-26T21:30:11.762Z,10.18
2023-08-26T21:35:13.645Z,8.82
2023-08-26T21:40:15.823Z,11.85
2023-08-26T21:45:17.373Z,8.38
2023-08-26T21:50:19.210Z,9.07
2023-08-26T21:55:21.282Z,8.45
2023-08-26T22:00:24.232Z,8.15
2023-08-26T22:05:30.380Z,11.75
2023-08-26T22:10:36.085Z,13.00
2023-08-26T22:15:42.502Z,9.55
2023-08-26T22:20:46.241Z,12.80
2023-08-26T22:25:47.955Z,14.05
2023-08-26T22:30:49.687Z,12.73
2023-08-26T22:35:51.437Z,14.55
2023-08-26T22:40:52.996Z,10.32
2023-08-26T22:45:54.540Z,11.25
2023-08-26T22:50:56.106Z,14.15
2023-08-26T22:56:03.791Z,13.93
2023-08-26T23:01:10.102Z,16.73
2023-08-26T23:06:11.783Z,13.75
2023-08-26T23:11:13.314Z,10.20
2023-08-26T23:16:14.945Z,11.98
2023-08-26T23:21:16.496Z,14.23
2023-08-26T23:26:18.108Z,14.32
2023-08-26T23:31:20.264Z,11.68
2023-08-26T23:36:22.313Z,13.20
2023-08-26T23:41:23.840Z,13.05
2023-08-26T23:46:25.442Z,16.48
2023-08-26T23:51:27.358Z,13.30
2023-08-26T23:56:28.895Z,14.88
